createdAt,value
2019-03-06T00:00:33.785Z,87.54
2019-03-06T00:05:59.213Z,87.04
2019-03-06T00:11:23.752Z,87.09
2019-03-06T00:16:47.301Z,86.61
2019-03-06T00:22:12.044Z,86.38
2019-03-06T00:27:35.689Z,86.19
2019-03-06T00:32:59.609Z,86.35
2019-03-06T00:38:24.072Z,86.51
2019-03-06T00:43:48.672Z,86.28
2019-03-06T00:49:13.197Z,85.85
2019-03-06T00:54:36.983Z,85.14
2019-03-06T01:00:01.430Z,84.76
2019-03-06T01:05:26.945Z,84.37
2019-03-06T01:10:50.669Z,83.95
2019-03-06T01:16:14.661Z,85.10
2019-03-06T01:21:38.238Z,85.12
2019-03-06T01:27:02.661Z,84.87
2019-03-06T01:32:26.876Z,84.00
2019-03-06T01:38:07.551Z,83.80
2019-03-06T01:43:36.247Z,83.97
2019-03-06T01:49:00.661Z,84.16
2019-03-06T01:54:25.115Z,84.22
2019-03-06T01:59:49.510Z,84.07
2019-03-06T02:05:14.711Z,84.64
2019-03-06T02:10:41.516Z,84.74
2019-03-06T02:16:06.642Z,85.26
2019-03-06T02:21:31.537Z,85.22
2019-03-06T02:26:59.408Z,85.46
2019-03-06T02:32:23.786Z,85.84
2019-03-06T02:37:48.435Z,86.37
2019-03-06T02:43:13.335Z,86.22
2019-03-06T02:48:37.368Z,86.43
2019-03-06T02:54:01.793Z,86.96
2019-03-06T02:59:35.885Z,86.93
2019-03-06T03:05:21.840Z,86.73
2019-03-06T03:10:45.442Z,87.17
2019-03-06T03:16:09.814Z,88.27
2019-03-06T03:21:34.294Z,88.59
2019-03-06T03:26:58.519Z,89.17
2019-03-06T03:32:22.625Z,89.99
2019-03-06T03:37:47.312Z,90.52
2019-03-06T03:43:11.831Z,91.00
2019-03-06T03:48:35.500Z,91.31
2019-03-06T03:53:59.412Z,91.68
2019-03-06T03:59:23.704Z,91.95
2019-03-06T04:04:48.372Z,92.18
2019-03-06T04:10:12.986Z,92.57
2019-03-06T04:15:37.580Z,92.75
2019-03-06T04:21:02.401Z,92.93
2019-03-06T04:26:26.286Z,93.14
2019-03-06T04:31:50.549Z,93.17
2019-03-06T04:37:15.154Z,93.41
2019-03-06T04:42:39.572Z,93.82
2019-03-06T04:48:03.894Z,94.08
2019-03-06T04:53:28.460Z,94.39
2019-03-06T04:58:53.086Z,94.52
2019-03-06T05:04:17.759Z,94.74
2019-03-06T05:09:42.077Z,94.83
2019-03-06T05:15:07.956Z,94.49
2019-03-06T05:20:31.800Z,94.71
2019-03-06T05:25:55.678Z,95.04
2019-03-06T05:31:20.335Z,95.07
2019-03-06T05:37:32.082Z,95.49
2019-03-06T05:42:56.573Z,95.46
2019-03-06T05:48:21.483Z,95.49
2019-03-06T05:53:45.729Z,95.79
2019-03-06T05:59:09.653Z,95.90
2019-03-06T06:04:34.442Z,95.85
2019-03-06T06:09:58.503Z,95.81
2019-03-06T06:15:23.164Z,95.55
2019-03-06T06:20:50.266Z,95.09
2019-03-06T06:26:14.668Z,93.65
2019-03-06T06:31:39.206Z,91.42
2019-03-06T06:37:03.849Z,90.03
2019-03-06T06:42:28.208Z,89.58
2019-03-06T06:48:13.579Z,89.76
2019-03-06T06:53:50.691Z,88.66
2019-03-06T06:59:29.510Z,84.96
2019-03-06T07:05:30.243Z,82.52
2019-03-06T07:11:07.279Z,83.01
2019-03-06T07:16:57.674Z,80.86
2019-03-06T07:22:34.067Z,79.42
2019-03-06T07:28:10.202Z,79.09
2019-03-06T07:34:02.766Z,76.93
2019-03-06T07:40:05.754Z,76.21
2019-03-06T07:45:59.811Z,76.52
2019-03-06T07:51:51.913Z,74.84
2019-03-06T07:57:33.610Z,73.62
2019-03-06T08:03:22.059Z,72.26
2019-03-06T08:08:46.228Z,73.53
2019-03-06T08:14:25.197Z,75.70
2019-03-06T08:20:06.931Z,74.86
2019-03-06T08:25:43.959Z,73.52
2019-03-06T08:31:23.149Z,72.45
2019-03-06T08:36:47.579Z,72.26
2019-03-06T08:42:12.127Z,70.60
2019-03-06T08:48:10.390Z,70.29
2019-03-06T08:53:39.563Z,69.77
2019-03-06T08:59:20.276Z,71.85
2019-03-06T09:05:13.348Z,71.98
2019-03-06T09:11:03.226Z,70.23
2019-03-06T09:16:45.475Z,68.69
2019-03-06T09:22:32.864Z,66.18
2019-03-06T09:28:03.262Z,65.46
2019-03-06T09:33:52.827Z,61.95
2019-03-06T09:39:31.981Z,60.50
2019-03-06T09:45:17.406Z,60.83
2019-03-06T09:50:50.715Z,57.79
2019-03-06T09:56:21.292Z,56.79
2019-03-06T10:02:20.504Z,56.15
2019-03-06T10:08:00.087Z,54.74
2019-03-06T10:13:41.638Z,55.31
2019-03-06T10:19:26.212Z,53.44
2019-03-06T10:24:50.872Z,51.14
2019-03-06T10:30:15.846Z,52.88
2019-03-06T10:35:41.247Z,49.94
2019-03-06T10:41:06.146Z,48.98
2019-03-06T10:46:31.009Z,48.90
2019-03-06T10:51:54.959Z,48.38
2019-03-06T10:57:19.308Z,46.91
2019-03-06T11:02:43.859Z,47.53
2019-03-06T11:08:09.728Z,46.64
2019-03-06T11:13:33.320Z,45.89
2019-03-06T11:18:59.265Z,46.30
2019-03-06T11:24:24.476Z,46.14
2019-03-06T11:29:48.814Z,45.01
2019-03-06T11:35:14.933Z,44.60
2019-03-06T11:40:39.746Z,45.57
2019-03-06T11:46:03.973Z,43.55
2019-03-06T11:51:27.539Z,43.10
2019-03-06T11:56:52.194Z,42.94
2019-03-06T12:02:17.415Z,43.15
2019-03-06T12:07:41.932Z,43.02
2019-03-06T12:13:10.027Z,42.58
2019-03-06T12:18:34.601Z,41.61
2019-03-06T12:23:59.640Z,39.78
2019-03-06T12:29:23.355Z,40.70
2019-03-06T12:34:47.169Z,41.25
2019-03-06T12:40:14.687Z,41.77
2019-03-06T12:45:38.747Z,41.09
2019-03-06T12:51:04.336Z,40.18
2019-03-06T12:56:28.657Z,40.82
2019-03-06T13:01:53.454Z,39.98
2019-03-06T13:07:18.132Z,38.93
2019-03-06T13:12:43.464Z,38.75
2019-03-06T13:18:08.085Z,39.49
2019-03-06T13:23:32.836Z,38.23
2019-03-06T13:28:57.704Z,38.53
2019-03-06T13:34:35.471Z,39.20
2019-03-06T13:39:59.763Z,38.23
2019-03-06T13:45:24.842Z,38.77
2019-03-06T13:50:50.407Z,41.04
2019-03-06T13:56:14.932Z,42.49
2019-03-06T14:01:38.776Z,43.03
2019-03-06T14:07:03.740Z,43.08
2019-03-06T14:12:28.527Z,44.00
2019-03-06T14:17:52.442Z,44.55
2019-03-06T14:23:16.932Z,45.35
2019-03-06T14:28:40.605Z,46.21
2019-03-06T14:34:05.406Z,46.93
2019-03-06T14:39:30.886Z,47.68
2019-03-06T14:44:54.832Z,48.03
2019-03-06T14:50:19.427Z,48.79
2019-03-06T14:55:44.327Z,49.01
2019-03-06T15:01:07.887Z,49.91
2019-03-06T15:06:31.708Z,50.48
2019-03-06T15:11:55.960Z,51.35
2019-03-06T15:17:21.232Z,51.59
2019-03-06T15:22:46.075Z,52.05
2019-03-06T15:28:10.539Z,52.32
2019-03-06T15:33:35.093Z,52.20
2019-03-06T15:38:58.834Z,52.21
2019-03-06T15:44:23.010Z,52.03
2019-03-06T15:49:46.784Z,52.26
2019-03-06T15:55:12.645Z,52.86
2019-03-06T16:00:45.812Z,54.18
2019-03-06T16:06:03.488Z,54.55
2019-03-06T16:11:27.695Z,54.53
2019-03-06T16:16:52.453Z,55.69
2019-03-06T16:22:16.140Z,55.87
2019-03-06T16:27:40.911Z,56.47
2019-03-06T16:33:04.747Z,56.99
2019-03-06T16:38:29.158Z,57.74
2019-03-06T16:43:53.683Z,57.61
2019-03-06T16:49:17.610Z,58.05
2019-03-06T16:54:42.467Z,58.63
2019-03-06T17:00:23.809Z,58.85
2019-03-06T17:05:48.642Z,59.22
2019-03-06T17:11:13.417Z,59.16
2019-03-06T17:16:38.408Z,59.39
2019-03-06T17:22:02.137Z,59.42
2019-03-06T17:27:26.444Z,59.87
2019-03-06T17:32:55.755Z,59.63
2019-03-06T17:38:20.025Z,60.18
2019-03-06T17:43:44.776Z,60.29
2019-03-06T17:49:09.685Z,60.38
2019-03-06T17:54:34.312Z,59.93
2019-03-06T17:59:58.247Z,60.28
2019-03-06T18:05:22.621Z,60.22
2019-03-06T18:10:47.387Z,60.64
2019-03-06T18:16:12.517Z,60.89
2019-03-06T18:21:37.604Z,61.23
2019-03-06T18:27:02.382Z,61.40
2019-03-06T18:32:27.008Z,61.16
2019-03-06T18:37:52.218Z,60.98
2019-03-06T18:43:17.005Z,61.04
2019-03-06T18:48:41.726Z,60.42
2019-03-06T18:54:06.430Z,59.89
2019-03-06T18:59:30.874Z,59.34
2019-03-06T19:04:55.358Z,58.94
2019-03-06T19:10:20.154Z,58.95
2019-03-06T19:15:43.952Z,59.18
2019-03-06T19:21:08.658Z,58.80
2019-03-06T19:26:33.473Z,58.59
2019-03-06T19:31:57.962Z,58.35
2019-03-06T19:37:22.535Z,58.34
2019-03-06T19:42:46.598Z,58.85
2019-03-06T19:48:11.251Z,58.72
2019-03-06T19:53:35.452Z,58.87
2019-03-06T19:58:59.409Z,59.01
2019-03-06T20:04:24.572Z,58.94
2019-03-06T20:09:49.341Z,59.03
2019-03-06T20:15:13.843Z,58.96
2019-03-06T20:20:37.823Z,59.01
2019-03-06T20:26:01.787Z,58.59
2019-03-06T20:31:26.563Z,59.00
2019-03-06T20:36:50.757Z,59.25
2019-03-06T20:42:15.506Z,59.17
2019-03-06T20:47:39.475Z,59.40
2019-03-06T20:53:04.360Z,59.52
2019-03-06T20:58:29.012Z,59.86
2019-03-06T21:03:53.416Z,59.59
2019-03-06T21:09:17.313Z,59.56
2019-03-06T21:14:42.295Z,59.94
2019-03-06T21:20:09.040Z,59.88
2019-03-06T21:25:33.458Z,60.52
2019-03-06T21:30:57.543Z,60.67
2019-03-06T21:36:21.988Z,60.83
2019-03-06T21:41:46.606Z,60.97
2019-03-06T21:47:11.013Z,60.97
2019-03-06T21:52:34.818Z,60.86
2019-03-06T21:57:58.678Z,61.15
2019-03-06T22:03:24.730Z,61.56
2019-03-06T22:08:49.924Z,61.58
2019-03-06T22:14:14.619Z,61.93
2019-03-06T22:19:39.018Z,62.21
2019-03-06T22:25:02.777Z,62.54
2019-03-06T22:30:26.576Z,62.86
2019-03-06T22:35:51.135Z,62.97
2019-03-06T22:41:15.725Z,63.19
2019-03-06T22:46:39.787Z,63.56
2019-03-06T22:52:04.063Z,63.70
2019-03-06T22:57:28.876Z,63.65
2019-03-06T23:02:53.246Z,63.91
2019-03-06T23:08:17.985Z,64.11
2019-03-06T23:13:41.813Z,64.29
2019-03-06T23:19:06.625Z,64.27
2019-03-06T23:24:31.320Z,64.29
2019-03-06T23:29:55.717Z,63.88
2019-03-06T23:35:19.277Z,63.89
2019-03-06T23:40:43.743Z,64.26
2019-03-06T23:46:08.271Z,64.84
2019-03-06T23:51:38.958Z,65.68
2019-03-06T23:57:03.034Z,66.51
